createdAt,value
2023-05-05T00:00:16.728Z,2585.00
2023-05-05T00:01:16.760Z,2518.00
2023-05-05T00:02:16.782Z,2455.00
2023-05-05T00:03:16.803Z,2457.00
2023-05-05T00:04:16.797Z,2411.00
2023-05-05T00:05:16.727Z,2349.00
2023-05-05T00:06:16.721Z,2323.00
2023-05-05T00:07:16.724Z,2338.00
2023-05-05T00:08:16.734Z,2360.00
2023-05-05T00:09:16.718Z,2317.00
2023-05-05T00:10:16.692Z,2227.00
2023-05-05T00:11:16.731Z,2190.00
2023-05-05T00:12:16.747Z,2180.00
2023-05-05T00:13:16.727Z,2205.00
2023-05-05T00:14:16.701Z,2250.00
2023-05-05T00:15:16.722Z,2282.00
2023-05-05T00:16:16.760Z,2290.00
2023-05-05T00:17:16.803Z,2292.00
2023-05-05T00:18:16.703Z,2305.00
2023-05-05T00:19:16.731Z,2322.00
2023-05-05T00:20:16.732Z,2344.00
2023-05-05T00:21:16.740Z,2357.00
2023-05-05T00:22:16.858Z,2378.00
2023-05-05T00:23:16.736Z,2398.00
2023-05-05T00:24:16.731Z,2402.00
2023-05-05T00:25:16.763Z,2424.00
2023-05-05T00:26:16.783Z,2441.00
2023-05-05T00:27:16.806Z,2446.00
2023-05-05T00:28:16.833Z,2436.00
2023-05-05T00:29:16.836Z,2420.00
2023-05-05T00:30:16.826Z,2438.00
2023-05-05T00:31:16.903Z,2460.00
2023-05-05T00:32:16.906Z,2481.00
2023-05-05T00:33:16.928Z,2484.00
2023-05-05T00:34:16.940Z,2517.00
2023-05-05T00:35:16.992Z,2513.00
2023-05-05T00:36:17.022Z,2536.00
2023-05-05T00:37:17.075Z,2534.00
2023-05-05T00:38:17.086Z,2528.00
2023-05-05T00:39:17.124Z,2479.00
2023-05-05T00:40:17.175Z,2418.00
2023-05-05T00:41:17.176Z,2414.00
2023-05-05T00:42:17.177Z,2408.00
2023-05-05T00:43:17.188Z,2386.00
2023-05-05T00:44:17.205Z,2397.00
2023-05-05T00:45:17.156Z,2412.00
2023-05-05T00:46:17.192Z,2401.00
2023-05-05T00:47:17.202Z,2416.00
2023-05-05T00:48:17.210Z,2433.00
2023-05-05T00:49:17.241Z,2423.00
2023-05-05T00:50:17.185Z,2442.00
2023-05-05T00:51:17.212Z,2460.00
2023-05-05T00:52:17.238Z,2449.00
2023-05-05T00:53:17.225Z,2417.00
2023-05-05T00:54:17.190Z,2428.00
2023-05-05T00:55:17.208Z,2446.00
2023-05-05T00:56:17.226Z,2478.00
2023-05-05T00:57:17.207Z,2435.00
2023-05-05T00:58:17.203Z,2450.00
2023-05-05T00:59:17.212Z,2467.00
2023-05-05T01:00:17.175Z,2487.00
2023-05-05T01:01:17.251Z,2519.00
2023-05-05T01:02:17.183Z,2537.00
2023-05-05T01:03:17.322Z,2555.00
2023-05-05T01:04:17.201Z,2544.00
2023-05-05T01:05:17.180Z,2578.00
2023-05-05T01:06:17.180Z,2589.00
2023-05-05T01:07:17.163Z,2603.00
2023-05-05T01:08:17.147Z,2627.00
2023-05-05T01:09:17.178Z,2639.00
2023-05-05T01:10:20.306Z,2583.00
2023-05-05T01:11:17.192Z,2557.00
2023-05-05T01:12:17.182Z,2484.00
2023-05-05T01:13:17.198Z,2464.00
2023-05-05T01:14:17.175Z,2452.00
2023-05-05T01:15:17.150Z,2415.00
2023-05-05T01:16:17.176Z,2392.00
2023-05-05T01:17:17.124Z,2385.00
2023-05-05T01:18:17.110Z,2364.00
2023-05-05T01:19:17.137Z,2365.00
2023-05-05T01:20:17.102Z,2375.00
2023-05-05T01:21:17.119Z,2383.00
2023-05-05T01:22:17.104Z,2388.00
2023-05-05T01:23:17.119Z,2368.00
2023-05-05T01:24:17.109Z,2357.00
2023-05-05T01:25:17.082Z,2367.00
2023-05-05T01:26:17.082Z,2387.00
2023-05-05T01:27:17.053Z,2405.00
2023-05-05T01:28:17.071Z,2409.00
2023-05-05T01:29:17.115Z,2414.00
2023-05-05T01:30:17.047Z,2406.00
2023-05-05T01:31:17.120Z,2411.00
2023-05-05T01:32:17.035Z,2443.00
2023-05-05T01:33:17.047Z,2463.00
2023-05-05T01:34:17.026Z,2486.00
2023-05-05T01:35:16.992Z,2469.00
2023-05-05T01:36:17.007Z,2476.00
2023-05-05T01:37:16.989Z,2505.00
2023-05-05T01:38:17.002Z,2529.00
2023-05-05T01:39:17.025Z,2532.00
2023-05-05T01:40:16.992Z,2538.00
2023-05-05T01:41:16.991Z,2558.00
2023-05-05T01:42:16.962Z,2567.00
2023-05-05T01:43:16.981Z,2555.00
2023-05-05T01:44:16.956Z,2566.00
2023-05-05T01:45:16.942Z,2572.00
2023-05-05T01:46:16.985Z,2581.00
2023-05-05T01:47:17.011Z,2593.00
2023-05-05T01:48:16.898Z,2586.00
2023-05-05T01:49:16.927Z,2601.00
2023-05-05T01:50:16.922Z,2601.00
2023-05-05T01:51:17.030Z,2594.00
2023-05-05T01:52:17.547Z,2593.00
2023-05-05T01:53:16.894Z,2613.00
2023-05-05T01:54:16.896Z,2621.00
2023-05-05T01:55:16.897Z,2616.00
2023-05-05T01:56:16.877Z,2639.00
2023-05-05T01:57:16.851Z,2636.00
2023-05-05T01:58:16.846Z,2615.00
2023-05-05T01:59:16.865Z,2629.00
2023-05-05T02:00:16.815Z,2632.00
2023-05-05T02:01:16.880Z,2620.00
2023-05-05T02:02:16.824Z,2623.00
2023-05-05T02:03:16.945Z,2655.00
2023-05-05T02:04:16.816Z,2653.00
2023-05-05T02:05:16.823Z,2664.00
2023-05-05T02:06:16.812Z,2676.00
2023-05-05T02:07:16.798Z,2680.00
2023-05-05T02:08:16.806Z,2697.00
2023-05-05T02:09:16.811Z,2704.00
2023-05-05T02:10:16.779Z,2722.00
2023-05-05T02:11:16.798Z,2721.00
2023-05-05T02:12:16.750Z,2697.00
2023-05-05T02:13:16.935Z,2664.00
2023-05-05T02:14:16.767Z,2648.00
2023-05-05T02:15:16.761Z,2658.00
2023-05-05T02:16:16.911Z,2662.00
2023-05-05T02:17:16.720Z,2678.00
2023-05-05T02:18:16.699Z,2695.00
2023-05-05T02:19:16.735Z,2708.00
2023-05-05T02:20:16.746Z,2713.00
2023-05-05T02:21:16.710Z,2725.00
2023-05-05T02:22:16.708Z,2712.00
2023-05-05T02:23:16.684Z,2707.00
2023-05-05T02:24:16.707Z,2706.00
2023-05-05T02:25:16.660Z,2711.00
2023-05-05T02:26:16.685Z,2719.00
2023-05-05T02:27:16.646Z,2710.00
2023-05-05T02:28:16.645Z,2718.00
2023-05-05T02:29:16.662Z,2728.00
2023-05-05T02:30:16.670Z,2737.00
2023-05-05T02:31:16.688Z,2751.00
2023-05-05T02:32:16.631Z,2757.00
2023-05-05T02:33:16.623Z,2770.00
2023-05-05T02:34:16.626Z,2783.00
2023-05-05T02:35:16.611Z,2786.00
2023-05-05T02:36:16.606Z,2775.00
2023-05-05T02:37:16.587Z,2771.00
2023-05-05T02:38:16.570Z,2764.00
2023-05-05T02:39:16.590Z,2766.00
2023-05-05T02:40:16.595Z,2735.00
2023-05-05T02:41:16.753Z,2737.00
2023-05-05T02:42:16.567Z,2742.00
2023-05-05T02:43:16.595Z,2718.00
2023-05-05T02:44:16.546Z,2701.00
2023-05-05T02:45:16.526Z,2699.00
2023-05-05T02:46:16.605Z,2689.00
2023-05-05T02:47:16.518Z,2673.00
2023-05-05T02:48:16.523Z,2649.00
2023-05-05T02:49:16.529Z,2635.00
2023-05-05T02:50:16.494Z,2616.00
2023-05-05T02:51:16.486Z,2610.00
2023-05-05T02:52:16.472Z,2592.00
2023-05-05T02:53:16.462Z,2610.00
2023-05-05T02:54:16.489Z,2624.00
2023-05-05T02:55:16.464Z,2641.00
2023-05-05T02:56:16.442Z,2644.00
2023-05-05T02:57:16.432Z,2650.00
2023-05-05T02:58:16.448Z,2663.00
2023-05-05T02:59:16.615Z,2664.00
2023-05-05T03:00:16.417Z,2669.00
2023-05-05T03:01:16.425Z,2671.00
2023-05-05T03:02:16.403Z,2653.00
2023-05-05T03:03:16.519Z,2648.00
2023-05-05T03:04:16.397Z,2644.00
2023-05-05T03:05:16.367Z,2655.00
2023-05-05T03:06:16.553Z,2651.00
2023-05-05T03:07:16.386Z,2650.00
2023-05-05T03:08:16.345Z,2643.00
2023-05-05T03:09:16.353Z,2645.00
2023-05-05T03:10:16.341Z,2640.00
2023-05-05T03:11:16.373Z,2639.00
2023-05-05T03:12:16.398Z,2660.00
2023-05-05T03:13:16.331Z,2665.00
2023-05-05T03:14:16.342Z,2689.00
2023-05-05T03:15:16.306Z,2713.00
2023-05-05T03:16:16.340Z,2724.00
2023-05-05T03:17:16.295Z,2747.00
2023-05-05T03:18:16.295Z,2765.00
2023-05-05T03:19:16.411Z,2786.00
2023-05-05T03:20:16.297Z,2813.00
2023-05-05T03:21:16.284Z,2842.00
2023-05-05T03:22:16.278Z,2855.00
2023-05-05T03:23:16.276Z,2850.00
2023-05-05T03:24:16.236Z,2842.00
2023-05-05T03:25:16.351Z,2815.00
2023-05-05T03:26:16.260Z,2812.00
2023-05-05T03:27:16.239Z,2834.00
2023-05-05T03:28:16.257Z,2853.00
2023-05-05T03:29:16.235Z,2811.00
2023-05-05T03:30:16.210Z,2790.00
2023-05-05T03:31:16.199Z,2791.00
2023-05-05T03:32:16.181Z,2776.00
2023-05-05T03:33:16.308Z,2753.00
2023-05-05T03:34:16.287Z,2751.00
2023-05-05T03:35:16.326Z,2755.00
2023-05-05T03:36:16.389Z,2751.00
2023-05-05T03:37:16.433Z,2777.00
2023-05-05T03:38:16.471Z,2787.00
2023-05-05T03:39:16.492Z,2821.00
2023-05-05T03:40:16.576Z,2847.00
2023-05-05T03:41:16.596Z,2841.00
2023-05-05T03:42:16.656Z,2820.00
2023-05-05T03:43:16.710Z,2810.00
2023-05-05T03:44:16.731Z,2789.00
2023-05-05T03:45:16.781Z,2738.00
2023-05-05T03:46:16.821Z,2711.00
2023-05-05T03:47:16.857Z,2725.00
2023-05-05T03:48:16.841Z,2716.00
2023-05-05T03:49:16.867Z,2735.00
2023-05-05T03:50:16.879Z,2714.00
2023-05-05T03:51:16.873Z,2706.00
2023-05-05T03:52:16.887Z,2727.00
2023-05-05T03:53:16.885Z,2719.00
2023-05-05T03:54:16.886Z,2704.00
2023-05-05T03:55:16.859Z,2691.00
2023-05-05T03:56:16.898Z,2661.00
2023-05-05T03:57:16.892Z,2655.00
2023-05-05T03:58:16.902Z,2646.00
2023-05-05T03:59:16.866Z,2656.00
2023-05-05T04:00:16.877Z,2669.00
2023-05-05T04:01:16.905Z,2677.00
2023-05-05T04:02:18.575Z,2695.00
2023-05-05T04:03:17.111Z,2713.00
2023-05-05T04:04:16.966Z,2723.00
2023-05-05T04:05:16.876Z,2717.00
2023-05-05T04:06:16.882Z,2691.00
2023-05-05T04:07:16.881Z,2652.00
2023-05-05T04:08:16.926Z,2648.00
2023-05-05T04:09:16.925Z,2661.00
2023-05-05T04:10:16.914Z,2658.00
2023-05-05T04:11:16.930Z,2662.00
2023-05-05T04:12:16.989Z,2653.00
2023-05-05T04:13:17.131Z,2629.00
2023-05-05T04:14:17.024Z,2602.00
2023-05-05T04:15:16.989Z,2615.00
2023-05-05T04:16:17.013Z,2592.00
2023-05-05T04:17:16.994Z,2584.00
2023-05-05T04:18:16.966Z,2608.00
2023-05-05T04:19:17.046Z,2612.00
2023-05-05T04:20:17.003Z,2628.00
2023-05-05T04:21:17.077Z,2661.00
2023-05-05T04:22:17.083Z,2685.00
2023-05-05T04:23:17.142Z,2714.00
2023-05-05T04:24:17.142Z,2736.00
2023-05-05T04:25:17.197Z,2741.00
2023-05-05T04:26:17.267Z,2759.00
2023-05-05T04:27:17.330Z,2778.00
2023-05-05T04:28:18.227Z,2787.00
2023-05-05T04:29:17.416Z,2780.00
2023-05-05T04:30:17.461Z,2763.00
2023-05-05T04:31:17.510Z,2774.00
2023-05-05T04:32:17.591Z,2742.00
2023-05-05T04:33:17.628Z,2764.00
2023-05-05T04:34:17.720Z,2776.00
2023-05-05T04:35:17.839Z,2775.00
2023-05-05T04:36:17.845Z,2774.00
2023-05-05T04:37:17.909Z,2784.00
2023-05-05T04:38:17.997Z,2783.00
2023-05-05T04:39:18.017Z,2803.00
2023-05-05T04:40:18.117Z,2810.00
2023-05-05T04:41:18.130Z,2813.00
2023-05-05T04:42:18.223Z,2794.00
2023-05-05T04:43:18.261Z,2804.00
2023-05-05T04:44:18.327Z,2798.00
2023-05-05T04:45:18.403Z,2787.00
2023-05-05T04:46:18.502Z,2796.00
2023-05-05T04:47:18.516Z,2800.00
2023-05-05T04:48:18.599Z,2790.00
2023-05-05T04:49:18.641Z,2813.00
2023-05-05T04:50:18.725Z,2806.00
2023-05-05T04:51:18.745Z,2812.00
2023-05-05T04:52:18.817Z,2805.00
2023-05-05T04:53:18.876Z,2792.00
2023-05-05T04:54:18.961Z,2807.00
2023-05-05T04:55:19.006Z,2796.00
2023-05-05T04:56:19.072Z,2803.00
2023-05-05T04:57:19.146Z,2814.00
2023-05-05T04:58:19.182Z,2831.00
2023-05-05T04:59:19.270Z,2804.00
2023-05-05T05:00:19.289Z,2843.00
2023-05-05T05:01:26.432Z,2835.00
2023-05-05T05:02:19.440Z,2837.00
2023-05-05T05:03:19.453Z,2838.00
2023-05-05T05:04:19.338Z,2838.00
2023-05-05T05:05:19.366Z,2799.00
2023-05-05T05:06:19.352Z,2780.00
2023-05-05T05:07:19.351Z,2772.00
2023-05-05T05:08:19.345Z,2776.00
2023-05-05T05:09:19.332Z,2769.00
2023-05-05T05:10:19.317Z,2751.00
2023-05-05T05:11:19.321Z,2750.00
2023-05-05T05:12:19.288Z,2759.00
2023-05-05T05:13:19.385Z,2755.00
2023-05-05T05:14:19.309Z,2755.00
2023-05-05T05:15:19.281Z,2758.00
2023-05-05T05:16:19.295Z,2766.00
2023-05-05T05:17:19.283Z,2748.00
2023-05-05T05:18:19.275Z,2728.00
2023-05-05T05:19:19.276Z,2738.00
2023-05-05T05:20:19.261Z,2741.00
2023-05-05T05:21:19.246Z,2737.00
2023-05-05T05:22:19.337Z,2734.00
2023-05-05T05:23:19.239Z,2745.00
2023-05-05T05:24:19.248Z,2731.00
2023-05-05T05:25:19.210Z,2734.00
2023-05-05T05:26:19.215Z,2742.00
2023-05-05T05:27:19.195Z,2756.00
2023-05-05T05:28:19.218Z,2743.00
2023-05-05T05:29:19.201Z,2744.00
2023-05-05T05:30:19.159Z,2742.00
2023-05-05T05:31:19.208Z,2740.00
2023-05-05T05:32:19.640Z,2755.00
2023-05-05T05:33:19.164Z,2758.00
2023-05-05T05:34:19.153Z,2831.00
2023-05-05T05:35:19.182Z,2875.00
2023-05-05T05:36:19.190Z,3006.00
2023-05-05T05:37:20.212Z,3053.00
2023-05-05T05:38:19.180Z,3123.00
2023-05-05T05:39:19.117Z,3186.00
2023-05-05T05:40:19.167Z,3256.00
2023-05-05T05:41:19.194Z,3322.00
2023-05-05T05:42:19.169Z,3293.00
2023-05-05T05:43:19.091Z,3299.00
2023-05-05T05:44:19.115Z,3304.00
2023-05-05T05:45:26.040Z,3329.00
2023-05-05T05:46:19.731Z,3339.00
2023-05-05T05:47:19.169Z,3359.00
2023-05-05T05:48:19.075Z,3378.00
2023-05-05T05:49:19.052Z,3408.00
2023-05-05T05:50:19.064Z,3402.00
2023-05-05T05:51:19.077Z,3363.00
2023-05-05T05:52:19.150Z,3356.00
2023-05-05T05:53:19.039Z,3354.00
2023-05-05T05:54:19.013Z,3372.00
2023-05-05T05:55:19.032Z,3388.00
2023-05-05T05:56:18.986Z,3416.00
2023-05-05T05:57:19.033Z,3419.00
2023-05-05T05:58:18.969Z,3425.00
2023-05-05T05:59:18.968Z,3427.00
2023-05-05T06:00:18.952Z,3452.00
2023-05-05T06:01:18.999Z,3463.00
2023-05-05T06:02:18.972Z,3424.00
2023-05-05T06:03:19.122Z,3413.00
2023-05-05T06:04:18.982Z,3413.00
2023-05-05T06:05:18.955Z,3433.00
2023-05-05T06:06:18.928Z,3461.00
2023-05-05T06:07:18.926Z,3456.00
2023-05-05T06:08:18.938Z,3452.00
2023-05-05T06:09:18.911Z,3433.00
2023-05-05T06:10:28.056Z,3461.00
2023-05-05T06:11:19.932Z,3438.00
2023-05-05T06:12:18.927Z,3407.00
2023-05-05T06:13:18.904Z,3416.00
2023-05-05T06:14:20.104Z,3344.00
2023-05-05T06:15:18.863Z,3299.00
2023-05-05T06:16:18.912Z,3263.00
2023-05-05T06:17:18.853Z,3222.00
2023-05-05T06:18:18.923Z,3235.00
2023-05-05T06:19:18.844Z,3215.00
2023-05-05T06:20:18.920Z,3177.00
2023-05-05T06:21:18.893Z,3134.00
2023-05-05T06:22:18.927Z,3152.00
2023-05-05T06:23:18.986Z,3143.00
2023-05-05T06:24:19.044Z,3100.00
2023-05-05T06:25:19.131Z,3062.00
2023-05-05T06:26:19.193Z,3043.00
2023-05-05T06:27:19.251Z,3060.00
2023-05-05T06:28:19.668Z,3069.00
2023-05-05T06:29:19.395Z,3063.00
2023-05-05T06:30:19.430Z,3018.00
2023-05-05T06:31:19.568Z,3037.00
2023-05-05T06:32:19.576Z,3050.00
2023-05-05T06:33:19.624Z,3066.00
2023-05-05T06:34:19.704Z,3078.00
2023-05-05T06:35:19.736Z,3086.00
2023-05-05T06:36:19.854Z,3084.00
2023-05-05T06:37:19.897Z,3069.00
2023-05-05T06:38:19.925Z,3005.00
2023-05-05T06:39:20.019Z,2961.00
2023-05-05T06:40:20.033Z,2875.00
2023-05-05T06:41:20.137Z,2846.00
2023-05-05T06:42:20.155Z,2805.00
2023-05-05T06:43:20.256Z,2765.00
2023-05-05T06:44:20.288Z,2774.00
2023-05-05T06:45:20.345Z,2740.00
2023-05-05T06:46:20.581Z,2735.00
2023-05-05T06:47:20.489Z,2736.00
2023-05-05T06:48:20.725Z,2696.00
2023-05-05T06:49:20.616Z,2652.00
2023-05-05T06:50:20.706Z,2606.00
2023-05-05T06:51:20.710Z,2552.00
2023-05-05T06:52:20.780Z,2534.00
2023-05-05T06:53:21.217Z,2501.00
2023-05-05T06:54:20.924Z,2487.00
2023-05-05T06:55:20.963Z,2461.00
2023-05-05T06:56:21.048Z,2413.00
2023-05-05T06:57:21.098Z,2364.00
2023-05-05T06:58:21.261Z,2276.00
2023-05-05T06:59:21.196Z,2257.00
2023-05-05T07:00:21.277Z,2250.00
2023-05-05T07:01:21.314Z,2162.00
2023-05-05T07:02:21.333Z,2091.00
2023-05-05T07:03:21.447Z,2059.00
2023-05-05T07:04:21.427Z,2032.00
2023-05-05T07:05:21.463Z,2039.00
2023-05-05T07:06:21.553Z,1991.00
2023-05-05T07:07:21.570Z,1921.00
2023-05-05T07:08:21.592Z,1860.00
2023-05-05T07:09:21.682Z,1851.00
2023-05-05T07:10:21.702Z,1776.00
2023-05-05T07:11:21.702Z,1743.00
2023-05-05T07:12:21.764Z,1727.00
2023-05-05T07:13:21.771Z,1667.00
2023-05-05T07:14:24.260Z,1592.00
2023-05-05T07:15:28.750Z,1521.00
2023-05-05T07:16:22.869Z,1515.00
2023-05-05T07:17:21.790Z,1466.00
2023-05-05T07:18:21.821Z,1481.00
2023-05-05T07:19:21.750Z,1422.00
2023-05-05T07:20:21.771Z,1406.00
2023-05-05T07:21:21.763Z,1376.00
2023-05-05T07:22:21.725Z,1350.00
2023-05-05T07:23:21.728Z,1306.00
2023-05-05T07:24:21.788Z,1208.00
2023-05-05T07:25:21.731Z,1172.00
2023-05-05T07:26:21.768Z,1132.00
2023-05-05T07:27:21.752Z,1156.00
2023-05-05T07:28:21.692Z,1319.00
2023-05-05T07:29:21.712Z,1523.00
2023-05-05T07:30:22.069Z,1811.00
2023-05-05T07:31:21.740Z,1984.00
2023-05-05T07:32:21.802Z,2096.00
2023-05-05T07:33:21.759Z,2323.00
2023-05-05T07:34:21.756Z,2457.00
2023-05-05T07:35:21.832Z,2630.00
2023-05-05T07:36:21.876Z,2536.00
2023-05-05T07:37:21.973Z,2580.00
2023-05-05T07:38:22.025Z,2491.00
2023-05-05T07:39:25.695Z,2418.00
2023-05-05T07:40:22.075Z,2483.00
2023-05-05T07:41:22.062Z,2617.00
2023-05-05T07:42:22.080Z,2760.00
2023-05-05T07:43:22.062Z,2836.00
2023-05-05T07:44:22.042Z,2768.00
2023-05-05T07:45:22.034Z,2644.00
2023-05-05T07:46:22.117Z,2582.00
2023-05-05T07:47:22.089Z,2606.00
2023-05-05T07:48:22.042Z,2570.00
2023-05-05T07:49:21.997Z,2605.00
2023-05-05T07:50:22.029Z,2554.00
2023-05-05T07:51:21.969Z,2509.00
2023-05-05T07:52:33.118Z,2432.00
2023-05-05T07:53:22.989Z,2432.00
2023-05-05T07:54:21.995Z,2390.00
2023-05-05T07:55:21.956Z,2358.00
2023-05-05T07:56:21.988Z,2273.00
2023-05-05T07:57:22.685Z,2216.00
2023-05-05T07:58:21.933Z,2142.00
2023-05-05T07:59:21.922Z,2080.00
2023-05-05T08:00:21.930Z,1976.00
2023-05-05T08:01:21.919Z,1992.00
2023-05-05T08:02:22.128Z,1795.00
2023-05-05T08:03:22.031Z,1649.00
2023-05-05T08:04:21.968Z,1428.00
2023-05-05T08:05:21.930Z,1359.00
2023-05-05T08:06:21.883Z,1266.00
2023-05-05T08:07:21.945Z,1116.00
2023-05-05T08:08:21.993Z,1007.00
2023-05-05T08:09:22.043Z,936.00
2023-05-05T08:10:22.140Z,890.00
2023-05-05T08:11:22.209Z,907.00
2023-05-05T08:12:22.228Z,833.00
2023-05-05T08:13:22.316Z,929.00
2023-05-05T08:14:22.390Z,907.00
2023-05-05T08:15:22.492Z,891.00
2023-05-05T08:16:22.565Z,792.00
2023-05-05T08:17:22.618Z,661.00
2023-05-05T08:18:22.727Z,674.00
2023-05-05T08:19:29.373Z,636.00
2023-05-05T08:20:23.710Z,619.00
2023-05-05T08:21:22.666Z,592.00
2023-05-05T08:22:22.696Z,544.00
2023-05-05T08:23:22.673Z,514.00
2023-05-05T08:24:22.753Z,475.00
2023-05-05T08:25:22.661Z,496.00
2023-05-05T08:26:22.620Z,498.00
2023-05-05T08:27:23.256Z,498.00
2023-05-05T08:28:22.637Z,501.00
2023-05-05T08:29:22.604Z,500.00
2023-05-05T08:30:22.598Z,506.00
2023-05-05T08:31:22.753Z,510.00
2023-05-05T08:32:22.579Z,498.00
2023-05-05T08:33:22.732Z,500.00
2023-05-05T08:34:22.789Z,492.00
2023-05-05T08:35:22.581Z,511.00
2023-05-05T08:36:22.594Z,510.00
2023-05-05T08:37:22.686Z,520.00
2023-05-05T08:38:22.563Z,500.00
2023-05-05T08:39:22.568Z,500.00
2023-05-05T08:40:22.725Z,500.00
2023-05-05T08:41:22.542Z,500.00
2023-05-05T08:42:36.157Z,511.00
2023-05-05T08:43:23.542Z,506.00
2023-05-05T08:44:22.553Z,511.00
2023-05-05T08:45:22.545Z,495.00
2023-05-05T08:46:22.652Z,486.00
2023-05-05T08:47:22.540Z,472.00
2023-05-05T08:48:22.772Z,508.00
2023-05-05T08:49:22.544Z,536.00
2023-05-05T08:50:22.677Z,539.00
2023-05-05T08:51:22.531Z,554.00
2023-05-05T08:52:22.691Z,614.00
2023-05-05T08:53:22.719Z,856.00
2023-05-05T08:54:22.719Z,1259.00
2023-05-05T08:55:22.782Z,2145.00
2023-05-05T08:56:22.818Z,2345.00
2023-05-05T08:57:22.896Z,2503.00
2023-05-05T08:58:59.678Z,500.00
2023-05-05T08:59:59.682Z,500.00
2023-05-05T09:00:59.663Z,500.00
2023-05-05T09:01:59.653Z,500.00
2023-05-05T09:03:00.030Z,500.00
2023-05-05T09:03:59.634Z,537.00
2023-05-05T09:04:59.639Z,549.00
2023-05-05T09:05:59.604Z,514.00
2023-05-05T09:06:59.647Z,500.00
2023-05-05T09:07:59.892Z,482.00
2023-05-05T09:08:59.753Z,492.00
2023-05-05T09:09:59.601Z,480.00
2023-05-05T09:10:59.563Z,471.00
2023-05-05T09:11:59.576Z,471.00
2023-05-05T09:12:59.695Z,519.00
2023-05-05T09:13:59.561Z,499.00
2023-05-05T09:14:59.594Z,505.00
2023-05-05T09:16:00.410Z,492.00
2023-05-05T09:16:59.615Z,476.00
2023-05-05T09:17:59.566Z,425.00
2023-05-05T09:18:59.526Z,486.00
2023-05-05T09:19:59.557Z,484.00
2023-05-05T09:20:59.744Z,586.00
2023-05-05T09:21:59.724Z,585.00
2023-05-05T09:22:59.544Z,607.00
2023-05-05T09:24:07.442Z,668.00
2023-05-05T09:25:00.485Z,672.00
2023-05-05T09:25:59.486Z,684.00
2023-05-05T09:26:59.482Z,671.00
2023-05-05T09:27:59.459Z,761.00
2023-05-05T09:28:59.486Z,716.00
2023-05-05T09:29:59.470Z,654.00
2023-05-05T09:30:59.523Z,601.00
2023-05-05T09:31:59.464Z,569.00
2023-05-05T09:32:59.571Z,616.00
2023-05-05T09:33:59.914Z,624.00
2023-05-05T09:34:59.453Z,715.00
2023-05-05T09:35:59.408Z,948.00
2023-05-05T09:36:59.415Z,986.00
2023-05-05T09:37:59.508Z,1099.00
2023-05-05T09:38:59.436Z,1183.00
2023-05-05T09:39:59.363Z,1240.00
2023-05-05T09:40:59.360Z,1280.00
2023-05-05T09:41:59.384Z,1370.00
2023-05-05T09:42:59.360Z,1382.00
2023-05-05T09:43:59.386Z,1477.00
2023-05-05T09:44:59.993Z,1498.00
2023-05-05T09:45:59.448Z,1406.00
2023-05-05T09:46:59.493Z,1545.00
2023-05-05T09:48:00.610Z,1532.00
2023-05-05T09:48:59.883Z,1532.00
2023-05-05T09:49:59.640Z,1441.00
2023-05-05T09:50:59.716Z,1215.00
2023-05-05T09:51:59.777Z,1029.00
2023-05-05T09:52:59.818Z,1088.00
2023-05-05T09:54:00.500Z,1034.00
2023-05-05T09:54:59.943Z,1064.00
2023-05-05T09:56:00.019Z,1162.00
2023-05-05T09:57:00.163Z,1327.00
2023-05-05T09:58:00.202Z,1354.00
2023-05-05T09:59:00.525Z,1546.00
2023-05-05T10:00:00.258Z,1778.00
2023-05-05T10:01:00.396Z,1922.00
2023-05-05T10:02:00.433Z,2018.00
2023-05-05T10:03:00.432Z,2090.00
2023-05-05T10:04:00.447Z,2186.00
2023-05-05T10:05:02.282Z,2243.00
2023-05-05T10:06:00.570Z,2296.00
2023-05-05T10:07:00.616Z,2318.00
2023-05-05T10:08:00.705Z,2345.00
2023-05-05T10:09:00.739Z,2323.00
2023-05-05T10:10:00.956Z,2201.00
2023-05-05T10:11:00.913Z,2124.00
2023-05-05T10:12:00.929Z,2027.00
2023-05-05T10:13:00.951Z,1963.00
2023-05-05T10:14:00.997Z,2000.00
2023-05-05T10:15:00.997Z,1936.00
2023-05-05T10:16:01.030Z,1853.00
2023-05-05T10:17:01.065Z,1869.00
2023-05-05T10:18:07.415Z,1942.00
2023-05-05T10:19:02.055Z,1937.00
2023-05-05T10:20:01.047Z,1927.00
2023-05-05T10:21:01.073Z,1913.00
2023-05-05T10:22:01.054Z,1943.00
2023-05-05T10:23:01.030Z,1983.00
2023-05-05T10:24:01.039Z,2028.00
2023-05-05T10:25:01.004Z,1929.00
2023-05-05T10:26:01.085Z,1914.00
2023-05-05T10:27:01.003Z,1744.00
2023-05-05T10:28:00.987Z,1748.00
2023-05-05T10:29:00.993Z,1692.00
2023-05-05T10:30:01.024Z,1628.00
2023-05-05T10:31:00.971Z,1674.00
2023-05-05T10:32:10.254Z,1727.00
2023-05-05T10:33:18.217Z,1728.00
2023-05-05T10:34:02.078Z,1727.00
2023-05-05T10:35:00.938Z,1733.00
2023-05-05T10:36:00.970Z,1747.00
2023-05-05T10:37:00.990Z,1764.00
2023-05-05T10:38:00.936Z,1817.00
2023-05-05T10:39:01.381Z,1798.00
2023-05-05T10:40:00.924Z,1751.00
2023-05-05T10:41:00.935Z,1784.00
2023-05-05T10:42:00.961Z,1701.00
2023-05-05T10:43:00.898Z,1714.00
2023-05-05T10:44:04.330Z,1706.00
2023-05-05T10:45:01.012Z,1708.00
2023-05-05T10:46:01.040Z,1710.00
2023-05-05T10:47:00.890Z,1718.00
2023-05-05T10:48:00.910Z,1708.00
2023-05-05T10:49:00.960Z,1686.00
2023-05-05T10:50:00.848Z,1645.00
2023-05-05T10:51:00.876Z,1627.00
2023-05-05T10:52:00.868Z,1705.00
2023-05-05T10:53:00.813Z,1705.00
2023-05-05T10:54:00.919Z,1616.00
2023-05-05T10:55:00.825Z,1648.00
2023-05-05T10:56:00.827Z,1638.00
2023-05-05T10:57:00.788Z,1759.00
2023-05-05T10:58:00.817Z,1692.00
2023-05-05T10:59:01.024Z,1690.00
2023-05-05T11:00:00.809Z,1811.00
2023-05-05T11:01:00.810Z,1842.00
2023-05-05T11:02:00.770Z,1701.00
2023-05-05T11:03:00.880Z,1773.00
2023-05-05T11:04:00.815Z,1817.00
2023-05-05T11:05:00.741Z,1862.00
2023-05-05T11:06:00.757Z,1798.00
2023-05-05T11:07:00.722Z,1803.00
2023-05-05T11:08:00.737Z,1727.00
2023-05-05T11:09:00.713Z,1735.00
2023-05-05T11:10:00.728Z,1684.00
2023-05-05T11:11:00.721Z,1703.00
2023-05-05T11:12:00.693Z,1718.00
2023-05-05T11:13:00.732Z,1778.00
2023-05-05T11:14:00.707Z,1738.00
2023-05-05T11:15:00.725Z,1793.00
2023-05-05T11:16:00.694Z,1778.00
2023-05-05T11:17:00.817Z,1713.00
2023-05-05T11:18:01.889Z,1545.00
2023-05-05T11:19:00.761Z,1501.00
2023-05-05T11:20:00.780Z,1502.00
2023-05-05T11:21:00.741Z,1437.00
2023-05-05T11:22:00.716Z,1424.00
2023-05-05T11:23:00.739Z,1554.00
2023-05-05T11:24:00.705Z,1613.00
2023-05-05T11:25:00.716Z,1648.00
2023-05-05T11:26:00.704Z,1644.00
2023-05-05T11:27:00.721Z,1645.00
2023-05-05T11:28:00.695Z,1654.00
2023-05-05T11:29:00.689Z,1341.00
2023-05-05T11:30:00.981Z,1391.00
2023-05-05T11:31:00.695Z,1526.00
2023-05-05T11:32:00.688Z,1594.00
2023-05-05T11:33:01.441Z,1601.00
2023-05-05T11:34:00.747Z,1449.00
2023-05-05T11:35:00.967Z,1403.00
2023-05-05T11:36:01.765Z,1431.00
2023-05-05T11:37:00.696Z,1050.00
2023-05-05T11:38:00.664Z,829.00
2023-05-05T11:39:00.694Z,1029.00
2023-05-05T11:40:00.683Z,1164.00
2023-05-05T11:41:00.652Z,1228.00
2023-05-05T11:42:03.836Z,1224.00
2023-05-05T11:43:01.643Z,1228.00
2023-05-05T11:44:00.662Z,1251.00
2023-05-05T11:45:00.667Z,1298.00
2023-05-05T11:46:00.726Z,1382.00
2023-05-05T11:47:00.633Z,1487.00
2023-05-05T11:48:00.758Z,1448.00
2023-05-05T11:49:00.648Z,1444.00
2023-05-05T11:50:00.943Z,1354.00
2023-05-05T11:51:00.602Z,1218.00
2023-05-05T11:52:00.605Z,1202.00
2023-05-05T11:53:00.611Z,1231.00
2023-05-05T11:54:00.577Z,1352.00
2023-05-05T11:55:00.585Z,1398.00
2023-05-05T11:56:00.569Z,1447.00
2023-05-05T11:57:00.527Z,1368.00
2023-05-05T11:58:00.559Z,1290.00
2023-05-05T11:59:00.543Z,1162.00
2023-05-05T12:00:00.640Z,1140.00
2023-05-05T12:01:00.492Z,1000.00
2023-05-05T12:02:00.524Z,736.00
2023-05-05T12:03:00.580Z,729.00
2023-05-05T12:04:00.634Z,945.00
2023-05-05T12:05:00.553Z,1115.00
2023-05-05T12:06:00.481Z,1161.00
2023-05-05T12:07:00.468Z,1120.00
2023-05-05T12:08:00.514Z,1082.00
2023-05-05T12:09:00.473Z,1126.00